createdAt,value
2018-10-02T00:00:53.645Z,68.03
2018-10-02T00:03:21.279Z,67.82
2018-10-02T00:05:48.894Z,68.43
2018-10-02T00:08:16.589Z,67.86
2018-10-02T00:10:50.145Z,68.27
2018-10-02T00:13:23.472Z,67.95
2018-10-02T00:15:51.123Z,67.59
2018-10-02T00:20:53.044Z,68.37
2018-10-02T00:23:20.672Z,69.04
2018-10-02T00:25:48.416Z,68.43
2018-10-02T00:28:16.011Z,69.09
2018-10-02T00:30:43.685Z,69.04
2018-10-02T00:33:11.288Z,68.65
2018-10-02T00:35:38.914Z,69.59
2018-10-02T00:38:06.571Z,69.96
2018-10-02T00:40:34.238Z,68.57
2018-10-02T00:43:01.903Z,69.20
2018-10-02T00:45:29.504Z,69.63
2018-10-02T00:47:57.088Z,69.80
2018-10-02T00:50:24.700Z,68.86
2018-10-02T00:52:52.492Z,68.89
2018-10-02T00:55:20.110Z,68.96
2018-10-02T00:57:47.687Z,69.16
2018-10-02T01:00:15.354Z,69.22
2018-10-02T01:02:43.019Z,68.53
2018-10-02T01:05:10.617Z,67.98
2018-10-02T01:07:38.246Z,68.25
2018-10-02T01:10:05.921Z,67.95
2018-10-02T01:12:33.501Z,66.96
2018-10-02T01:15:01.138Z,68.02
2018-10-02T01:17:28.791Z,66.91
2018-10-02T01:19:56.433Z,67.92
2018-10-02T01:22:23.989Z,68.05
2018-10-02T01:24:51.551Z,66.97
2018-10-02T01:27:21.454Z,66.93
2018-10-02T01:29:49.343Z,66.27
2018-10-02T01:32:16.972Z,67.71
2018-10-02T01:34:44.663Z,67.17
2018-10-02T01:37:12.344Z,66.92
2018-10-02T01:39:39.975Z,66.27
2018-10-02T01:42:07.568Z,65.86
2018-10-02T01:44:35.425Z,67.30
2018-10-02T01:47:03.085Z,66.86
2018-10-02T01:49:30.652Z,66.30
2018-10-02T01:51:58.244Z,66.91
2018-10-02T01:54:25.857Z,67.16
2018-10-02T01:56:53.532Z,67.61
2018-10-02T01:59:21.193Z,68.15
2018-10-02T02:01:48.847Z,66.06
2018-10-02T02:04:16.532Z,66.81
2018-10-02T02:06:44.177Z,66.48
2018-10-02T02:09:11.894Z,67.18
2018-10-02T02:11:39.565Z,66.56
2018-10-02T02:14:07.304Z,65.78
2018-10-02T02:16:34.988Z,67.04
2018-10-02T02:19:02.696Z,66.36
2018-10-02T02:21:30.363Z,65.73
2018-10-02T02:23:58.022Z,66.92
2018-10-02T02:26:25.676Z,66.72
2018-10-02T02:28:53.320Z,66.14
2018-10-02T02:31:21.047Z,67.37
2018-10-02T02:33:48.637Z,66.49
2018-10-02T02:36:16.393Z,67.34
2018-10-02T02:38:44.045Z,66.72
2018-10-02T02:41:11.651Z,68.11
2018-10-02T02:43:39.285Z,68.42
2018-10-02T02:46:07.795Z,68.70
2018-10-02T02:48:41.148Z,68.78
2018-10-02T02:51:14.711Z,68.75
2018-10-02T02:53:42.736Z,68.48
2018-10-02T02:56:10.418Z,70.57
2018-10-02T02:58:38.140Z,71.07
2018-10-02T03:01:05.861Z,70.32
2018-10-02T03:03:33.493Z,70.12
2018-10-02T03:06:01.069Z,70.08
2018-10-02T03:08:28.671Z,71.43
2018-10-02T03:10:56.265Z,72.46
2018-10-02T03:13:23.904Z,70.88
2018-10-02T03:15:51.556Z,72.03
2018-10-02T03:18:19.280Z,72.68
2018-10-02T03:20:46.921Z,72.76
2018-10-02T03:23:14.726Z,73.62
2018-10-02T03:25:42.400Z,74.12
2018-10-02T03:28:10.024Z,73.80
2018-10-02T03:30:37.670Z,72.90
2018-10-02T03:33:05.654Z,73.40
2018-10-02T03:35:33.334Z,73.29
2018-10-02T03:38:01.032Z,73.49
2018-10-02T03:40:28.696Z,73.26
2018-10-02T03:42:56.334Z,71.81
2018-10-02T03:45:23.971Z,73.17
2018-10-02T03:47:51.653Z,73.33
2018-10-02T03:50:19.315Z,73.27
2018-10-02T03:52:46.951Z,74.59
2018-10-02T03:55:14.641Z,74.12
2018-10-02T03:57:42.353Z,74.68
2018-10-02T04:00:09.991Z,73.93
2018-10-02T04:02:37.641Z,73.14
2018-10-02T04:05:05.297Z,72.87
2018-10-02T04:07:32.860Z,73.36
2018-10-02T04:10:00.471Z,73.87
2018-10-02T04:12:28.067Z,73.03
2018-10-02T04:14:55.731Z,72.97
2018-10-02T04:17:23.373Z,73.62
2018-10-02T04:19:50.973Z,73.19
2018-10-02T04:22:18.664Z,73.37
2018-10-02T04:24:47.065Z,73.14
2018-10-02T04:27:14.828Z,72.70
2018-10-02T04:29:42.457Z,72.26
2018-10-02T04:32:10.084Z,73.04
2018-10-02T04:34:37.744Z,73.42
2018-10-02T04:37:05.500Z,72.92
2018-10-02T04:39:33.161Z,72.84
2018-10-02T04:42:00.780Z,73.75
2018-10-02T04:44:28.430Z,73.63
2018-10-02T04:46:56.065Z,73.50
2018-10-02T04:49:23.708Z,73.48
2018-10-02T04:51:51.381Z,73.25
2018-10-02T04:54:19.088Z,72.73
2018-10-02T04:56:46.716Z,73.89
2018-10-02T04:59:14.367Z,74.26
2018-10-02T05:01:42.081Z,74.61
2018-10-02T05:04:09.808Z,74.14
2018-10-02T05:06:37.436Z,73.80
2018-10-02T05:09:07.555Z,75.34
2018-10-02T05:11:35.279Z,74.17
2018-10-02T05:14:02.939Z,74.52
2018-10-02T05:16:30.746Z,74.19
2018-10-02T05:18:58.464Z,73.60
2018-10-02T05:21:26.135Z,73.06
2018-10-02T05:23:53.776Z,73.86
2018-10-02T05:26:21.489Z,73.37
2018-10-02T05:28:49.182Z,73.13
2018-10-02T05:31:16.961Z,73.15
2018-10-02T05:33:44.742Z,73.51
2018-10-02T05:36:12.413Z,74.30
2018-10-02T05:38:40.071Z,74.66
2018-10-02T05:41:07.824Z,73.97
2018-10-02T05:43:35.432Z,74.29
2018-10-02T05:46:03.159Z,73.83
2018-10-02T05:48:30.844Z,73.44
2018-10-02T05:50:58.695Z,74.21
2018-10-02T05:53:26.413Z,73.80
2018-10-02T05:55:54.121Z,73.59
2018-10-02T05:58:21.819Z,73.26
2018-10-02T06:00:49.525Z,73.50
2018-10-02T06:03:17.221Z,72.50
2018-10-02T06:05:44.956Z,72.12
2018-10-02T06:08:12.667Z,71.58
2018-10-02T06:10:40.365Z,70.21
2018-10-02T06:13:08.115Z,71.19
2018-10-02T06:15:35.967Z,71.46
2018-10-02T06:18:03.725Z,70.97
2018-10-02T06:20:31.462Z,71.16
2018-10-02T06:22:59.123Z,70.76
2018-10-02T06:25:26.925Z,70.11
2018-10-02T06:27:54.574Z,69.91
2018-10-02T06:30:22.316Z,70.01
2018-10-02T06:32:49.996Z,68.90
2018-10-02T06:35:17.646Z,70.46
2018-10-02T06:37:45.354Z,71.60
2018-10-02T06:40:13.032Z,70.73
2018-10-02T06:42:40.740Z,69.28
2018-10-02T06:45:08.912Z,69.40
2018-10-02T06:47:36.628Z,68.84
2018-10-02T06:50:04.302Z,68.03
2018-10-02T06:52:32.291Z,68.15
2018-10-02T06:54:59.551Z,68.15
2018-10-02T06:57:27.189Z,67.52
2018-10-02T06:59:54.918Z,67.69
2018-10-02T07:02:22.690Z,66.99
2018-10-02T07:04:50.342Z,66.72
2018-10-02T07:07:17.965Z,66.27
2018-10-02T07:09:45.746Z,66.60
2018-10-02T07:12:13.829Z,67.65
2018-10-02T07:14:41.493Z,67.76
2018-10-02T07:17:09.207Z,68.09
2018-10-02T07:19:36.873Z,67.27
2018-10-02T07:22:04.549Z,65.53
2018-10-02T07:24:32.234Z,63.47
2018-10-02T07:27:00.058Z,63.80
2018-10-02T07:29:27.737Z,63.35
2018-10-02T07:31:55.350Z,64.26
2018-10-02T07:34:23.151Z,64.58
2018-10-02T07:36:50.894Z,63.03
2018-10-02T07:39:18.527Z,61.65
2018-10-02T07:41:46.265Z,62.15
2018-10-02T07:44:13.903Z,60.34
2018-10-02T07:46:41.535Z,59.01
2018-10-02T07:49:09.298Z,59.33
2018-10-02T07:51:36.980Z,59.27
2018-10-02T07:54:04.653Z,58.32
2018-10-02T07:56:32.380Z,58.11
2018-10-02T07:59:00.056Z,57.73
2018-10-02T08:01:27.704Z,57.44
2018-10-02T08:03:55.402Z,58.23
2018-10-02T08:06:23.128Z,56.58
2018-10-02T08:08:50.792Z,57.64
2018-10-02T08:11:18.440Z,57.82
2018-10-02T08:13:46.071Z,58.13
2018-10-02T08:16:13.697Z,56.84
2018-10-02T08:18:41.428Z,54.45
2018-10-02T08:21:09.260Z,56.10
2018-10-02T08:23:36.921Z,56.71
2018-10-02T08:26:04.542Z,56.54
2018-10-02T08:28:32.203Z,54.70
2018-10-02T08:30:59.956Z,54.02
2018-10-02T08:33:27.538Z,54.65
2018-10-02T08:35:55.336Z,54.76
2018-10-02T08:38:22.897Z,55.22
2018-10-02T08:40:50.547Z,54.10
2018-10-02T08:43:18.259Z,52.92
2018-10-02T08:45:46.102Z,53.04
2018-10-02T08:48:13.808Z,52.54
2018-10-02T08:50:41.529Z,51.83
2018-10-02T08:53:09.137Z,51.17
2018-10-02T08:55:36.779Z,50.22
2018-10-02T08:58:04.488Z,50.98
2018-10-02T09:00:32.188Z,50.72
2018-10-02T09:02:59.860Z,48.21
2018-10-02T09:05:27.477Z,48.61
2018-10-02T09:07:55.156Z,47.76
2018-10-02T09:10:22.811Z,48.60
2018-10-02T09:12:50.654Z,47.26
2018-10-02T09:15:18.259Z,46.95
2018-10-02T09:17:45.909Z,46.88
2018-10-02T09:20:13.556Z,47.26
2018-10-02T09:22:41.442Z,47.23
2018-10-02T09:25:09.195Z,46.89
2018-10-02T09:27:37.004Z,45.08
2018-10-02T09:30:13.470Z,44.50
2018-10-02T09:32:46.890Z,43.68
2018-10-02T09:35:20.459Z,43.99
2018-10-02T09:37:53.912Z,44.95
2018-10-02T09:40:27.193Z,45.95
2018-10-02T09:43:00.589Z,44.76
2018-10-02T09:45:28.173Z,43.31
2018-10-02T09:47:58.150Z,42.85
2018-10-02T09:50:25.833Z,42.82
2018-10-02T09:52:53.544Z,43.09
2018-10-02T09:55:21.198Z,41.82
2018-10-02T09:57:48.835Z,43.34
2018-10-02T10:00:26.061Z,43.19
2018-10-02T10:02:54.585Z,41.92
2018-10-02T10:05:22.592Z,40.69
2018-10-02T10:07:50.271Z,38.73
2018-10-02T10:10:17.951Z,39.89
2018-10-02T10:12:45.785Z,39.50
2018-10-02T10:15:13.511Z,39.71
2018-10-02T10:17:41.218Z,40.20
2018-10-02T10:20:08.935Z,40.44
2018-10-02T10:22:36.691Z,41.59
2018-10-02T10:25:04.405Z,39.29
2018-10-02T10:27:32.124Z,40.14
2018-10-02T10:29:59.860Z,37.56
2018-10-02T10:32:27.596Z,39.14
2018-10-02T10:34:55.252Z,37.54
2018-10-02T10:37:22.945Z,35.98
2018-10-02T10:39:50.694Z,37.52
2018-10-02T10:42:18.375Z,37.59
2018-10-02T10:44:46.208Z,38.30
2018-10-02T10:47:13.898Z,38.36
2018-10-02T10:49:41.588Z,38.05
2018-10-02T10:52:09.310Z,37.86
2018-10-02T10:54:37.064Z,38.97
2018-10-02T10:57:04.720Z,37.52
2018-10-02T10:59:32.440Z,38.07
2018-10-02T11:02:00.174Z,39.20
2018-10-02T11:04:28.020Z,39.48
2018-10-02T11:06:55.756Z,39.37
2018-10-02T11:09:23.527Z,38.88
2018-10-02T11:11:51.259Z,37.43
2018-10-02T11:14:18.944Z,38.71
2018-10-02T11:16:46.747Z,39.47
2018-10-02T11:19:14.384Z,40.27
2018-10-02T11:21:42.142Z,40.34
2018-10-02T11:24:09.844Z,39.12
2018-10-02T11:26:37.424Z,39.19
2018-10-02T11:29:05.057Z,38.70
2018-10-02T11:31:32.779Z,39.55
2018-10-02T11:34:00.419Z,38.91
2018-10-02T11:36:28.083Z,37.04
2018-10-02T11:38:55.713Z,39.34
2018-10-02T11:41:23.372Z,40.92
2018-10-02T11:43:51.087Z,41.94
2018-10-02T11:46:18.676Z,41.40
2018-10-02T11:48:46.357Z,41.37
2018-10-02T11:51:13.994Z,41.48
2018-10-02T11:53:41.598Z,40.21
2018-10-02T11:56:09.280Z,40.43
2018-10-02T11:58:36.913Z,40.94
2018-10-02T12:01:04.684Z,41.33
2018-10-02T12:03:32.347Z,41.68
2018-10-02T12:05:59.971Z,42.38
2018-10-02T12:08:27.674Z,42.32
2018-10-02T12:10:55.356Z,42.40
2018-10-02T12:13:23.085Z,42.94
2018-10-02T12:15:50.695Z,42.44
2018-10-02T12:18:18.412Z,41.89
2018-10-02T12:20:46.074Z,44.39
2018-10-02T12:23:13.777Z,46.07
2018-10-02T12:25:41.460Z,45.19
2018-10-02T12:28:09.106Z,46.01
2018-10-02T12:30:36.759Z,46.68
2018-10-02T12:33:04.419Z,47.37
2018-10-02T12:35:32.097Z,46.51
2018-10-02T12:37:59.727Z,47.19
2018-10-02T12:40:27.381Z,47.31
2018-10-02T12:42:55.067Z,48.16
2018-10-02T12:45:22.693Z,47.61
2018-10-02T12:47:50.437Z,48.50
2018-10-02T12:50:18.087Z,48.26
2018-10-02T12:52:45.895Z,47.61
2018-10-02T12:55:13.515Z,48.32
2018-10-02T12:57:41.191Z,48.09
2018-10-02T13:00:08.912Z,47.85
2018-10-02T13:02:36.599Z,48.36
2018-10-02T13:05:04.401Z,48.38
2018-10-02T13:07:32.467Z,49.19
2018-10-02T13:10:00.174Z,48.11
2018-10-02T13:12:27.766Z,47.60
2018-10-02T13:14:55.454Z,48.83
2018-10-02T13:17:23.172Z,48.42
2018-10-02T13:19:50.925Z,47.51
2018-10-02T13:22:18.568Z,47.58
2018-10-02T13:24:46.289Z,48.00
2018-10-02T13:27:13.925Z,48.05
2018-10-02T13:29:41.586Z,47.68
2018-10-02T13:32:09.351Z,46.98
2018-10-02T13:34:37.134Z,48.16
2018-10-02T13:37:04.951Z,46.59
2018-10-02T13:39:32.736Z,47.02
2018-10-02T13:42:00.494Z,46.56
2018-10-02T13:44:28.289Z,46.25
2018-10-02T13:46:56.636Z,45.91
2018-10-02T13:49:24.347Z,46.39
2018-10-02T13:51:52.024Z,46.90
2018-10-02T13:54:19.665Z,48.49
2018-10-02T13:56:47.419Z,49.62
2018-10-02T13:59:15.054Z,48.97
2018-10-02T14:01:42.790Z,49.15
2018-10-02T14:04:10.461Z,49.24
2018-10-02T14:06:38.215Z,48.73
2018-10-02T14:09:07.237Z,48.50
2018-10-02T14:11:34.977Z,49.15
2018-10-02T14:14:02.699Z,48.61
2018-10-02T14:16:30.485Z,48.53
2018-10-02T14:18:58.223Z,48.46
2018-10-02T14:21:25.877Z,44.46
2018-10-02T14:23:53.679Z,43.90
2018-10-02T14:26:21.445Z,45.76
2018-10-02T14:28:49.198Z,46.90
2018-10-02T14:31:16.875Z,46.78
2018-10-02T14:33:44.782Z,47.24
2018-10-02T14:36:12.559Z,48.87
2018-10-02T14:38:40.285Z,50.94
2018-10-02T14:41:08.059Z,51.62
2018-10-02T14:43:36.025Z,52.75
2018-10-02T14:46:03.768Z,52.99
2018-10-02T14:48:31.452Z,53.03
2018-10-02T14:50:59.204Z,53.17
2018-10-02T14:53:26.908Z,53.73
2018-10-02T14:55:54.585Z,53.70
2018-10-02T14:58:22.253Z,54.19
2018-10-02T15:00:50.047Z,53.61
2018-10-02T15:03:17.764Z,53.57
2018-10-02T15:05:45.682Z,54.82
2018-10-02T15:08:13.439Z,55.38
2018-10-02T15:10:41.152Z,54.68
2018-10-02T15:13:08.808Z,54.60
2018-10-02T15:15:37.503Z,54.69
2018-10-02T15:18:05.275Z,54.71
2018-10-02T15:20:33.012Z,54.62
2018-10-02T15:23:00.776Z,54.62
2018-10-02T15:25:28.409Z,54.52
2018-10-02T15:27:56.382Z,54.99
2018-10-02T15:30:24.096Z,55.26
2018-10-02T15:32:51.746Z,55.17
2018-10-02T15:35:19.511Z,55.66
2018-10-02T15:37:47.367Z,54.79
2018-10-02T15:40:14.948Z,55.94
2018-10-02T15:42:42.693Z,55.97
2018-10-02T15:45:10.405Z,57.23
2018-10-02T15:47:38.261Z,57.88
2018-10-02T15:50:06.093Z,56.96
2018-10-02T15:52:33.745Z,58.24
2018-10-02T15:55:01.520Z,57.65
2018-10-02T15:57:29.323Z,57.18
2018-10-02T15:59:56.985Z,58.17
2018-10-02T16:02:24.761Z,58.37
2018-10-02T16:04:52.473Z,58.15
2018-10-02T16:07:20.213Z,58.08
2018-10-02T16:09:48.346Z,58.63
2018-10-02T16:12:16.121Z,57.74
2018-10-02T16:14:43.814Z,57.62
2018-10-02T16:17:11.503Z,57.33
2018-10-02T16:19:39.178Z,58.69
2018-10-02T16:22:07.036Z,58.46
2018-10-02T16:24:34.744Z,58.16
2018-10-02T16:27:02.537Z,58.13
2018-10-02T16:29:30.225Z,57.96
2018-10-02T16:31:57.918Z,57.73
2018-10-02T16:34:25.997Z,58.45
2018-10-02T16:36:53.685Z,57.99
2018-10-02T16:39:21.491Z,58.24
2018-10-02T16:41:49.306Z,58.87
2018-10-02T16:44:17.178Z,58.69
2018-10-02T16:46:44.984Z,59.04
2018-10-02T16:49:12.914Z,58.72
2018-10-02T16:51:40.881Z,59.33
2018-10-02T16:54:08.905Z,59.21
2018-10-02T16:56:36.958Z,59.29
2018-10-02T16:59:05.071Z,58.32
2018-10-02T17:01:33.146Z,59.06
2018-10-02T17:04:01.129Z,58.58
2018-10-02T17:06:29.370Z,58.75
2018-10-02T17:08:57.304Z,58.61
2018-10-02T17:11:25.168Z,58.65
2018-10-02T17:13:53.146Z,58.45
2018-10-02T17:16:21.032Z,59.22
2018-10-02T17:18:48.848Z,58.60
2018-10-02T17:21:16.890Z,58.79
2018-10-02T17:23:45.272Z,58.84
2018-10-02T17:26:13.150Z,59.58
2018-10-02T17:28:41.095Z,60.38
2018-10-02T17:31:09.056Z,61.38
2018-10-02T17:33:37.028Z,60.99
2018-10-02T17:36:04.962Z,61.57
2018-10-02T17:38:32.792Z,61.71
2018-10-02T17:41:00.756Z,62.20
2018-10-02T17:43:28.645Z,62.42
2018-10-02T17:45:56.504Z,62.91
2018-10-02T17:48:24.399Z,63.62
2018-10-02T17:50:52.370Z,63.15
2018-10-02T17:53:20.312Z,64.40
2018-10-02T17:55:48.043Z,64.87
2018-10-02T17:58:15.982Z,65.88
2018-10-02T18:00:43.945Z,65.19
2018-10-02T18:03:12.128Z,65.46
2018-10-02T18:05:40.047Z,65.61
2018-10-02T18:08:07.863Z,65.09
2018-10-02T18:10:35.780Z,66.33
2018-10-02T18:13:03.597Z,67.80
2018-10-02T18:15:31.753Z,67.30
2018-10-02T18:17:59.511Z,68.00
2018-10-02T18:20:27.365Z,68.15
2018-10-02T18:22:55.195Z,68.81
2018-10-02T18:25:23.081Z,68.87
2018-10-02T18:27:51.041Z,68.86
2018-10-02T18:30:18.829Z,68.80
2018-10-02T18:32:46.576Z,69.05
2018-10-02T18:35:14.623Z,68.86
2018-10-02T18:37:42.577Z,68.34
2018-10-02T18:40:10.533Z,68.13
2018-10-02T18:42:38.332Z,67.63
2018-10-02T18:45:06.277Z,68.05
2018-10-02T18:47:34.333Z,67.63
2018-10-02T18:50:02.495Z,67.25
2018-10-02T18:52:30.693Z,66.34
2018-10-02T18:54:58.581Z,66.72
2018-10-02T18:57:26.489Z,66.13
2018-10-02T18:59:54.428Z,66.28
2018-10-02T19:02:22.414Z,66.78
2018-10-02T19:04:50.269Z,66.59
2018-10-02T19:07:18.264Z,66.32
2018-10-02T19:09:46.116Z,67.05
2018-10-02T19:12:15.683Z,66.86
2018-10-02T19:14:43.718Z,67.56
2018-10-02T19:17:11.605Z,66.80
2018-10-02T19:19:45.227Z,66.85
2018-10-02T19:22:13.103Z,67.82
2018-10-02T19:24:41.128Z,68.00
2018-10-02T19:27:08.993Z,66.97
2018-10-02T19:29:36.856Z,66.96
2018-10-02T19:32:10.473Z,67.20
2018-10-02T19:34:38.435Z,67.66
2018-10-02T19:37:11.968Z,67.51
2018-10-02T19:39:40.017Z,67.46
2018-10-02T19:42:07.850Z,67.35
2018-10-02T19:44:35.869Z,66.77
2018-10-02T19:47:04.024Z,67.00
2018-10-02T19:49:33.829Z,67.14
2018-10-02T19:52:07.590Z,67.23
2018-10-02T19:54:35.525Z,66.22
2018-10-02T19:57:03.370Z,65.65
2018-10-02T19:59:31.126Z,65.80
2018-10-02T20:01:58.966Z,66.13
2018-10-02T20:04:26.855Z,65.75
2018-10-02T20:06:54.935Z,65.59
2018-10-02T20:09:22.764Z,65.13
2018-10-02T20:11:50.580Z,64.35
2018-10-02T20:14:18.308Z,64.42
2018-10-02T20:16:46.312Z,64.19
2018-10-02T20:19:14.148Z,64.09
2018-10-02T20:21:41.971Z,63.50
2018-10-02T20:24:09.898Z,63.96
2018-10-02T20:26:37.802Z,64.33
2018-10-02T20:29:05.660Z,64.41
2018-10-02T20:31:35.955Z,64.32
2018-10-02T20:34:03.755Z,63.97
2018-10-02T20:36:31.545Z,63.98
2018-10-02T20:38:59.326Z,63.70
2018-10-02T20:41:27.218Z,64.10
2018-10-02T20:43:55.084Z,64.97
2018-10-02T20:46:22.980Z,64.48
2018-10-02T20:48:50.871Z,64.47
2018-10-02T20:51:18.637Z,64.94
2018-10-02T20:53:46.481Z,64.83
2018-10-02T20:56:14.784Z,64.79
2018-10-02T20:58:42.591Z,64.16
2018-10-02T21:01:10.368Z,64.79
2018-10-02T21:03:38.163Z,64.87
2018-10-02T21:06:05.966Z,64.79
2018-10-02T21:08:33.797Z,64.87
2018-10-02T21:11:01.602Z,64.62
2018-10-02T21:13:29.405Z,64.40
2018-10-02T21:15:57.305Z,64.34
2018-10-02T21:18:25.929Z,64.45
2018-10-02T21:20:54.253Z,64.94
2018-10-02T21:23:22.085Z,64.88
2018-10-02T21:25:50.189Z,64.28
2018-10-02T21:28:18.026Z,64.30
2018-10-02T21:30:45.821Z,64.34
2018-10-02T21:33:13.604Z,64.88
2018-10-02T21:35:41.475Z,65.40
2018-10-02T21:38:09.365Z,65.24
2018-10-02T21:40:37.419Z,65.51
2018-10-02T21:43:05.948Z,65.55
2018-10-02T21:45:33.869Z,64.75
2018-10-02T21:48:01.828Z,64.85
2018-10-02T21:50:29.774Z,65.17
2018-10-02T21:52:57.520Z,64.85
2018-10-02T21:55:25.202Z,64.98
2018-10-02T21:57:52.859Z,64.60
2018-10-02T22:00:21.166Z,64.54
2018-10-02T22:02:49.136Z,65.32
2018-10-02T22:05:16.897Z,65.44
2018-10-02T22:07:44.654Z,65.00
2018-10-02T22:10:12.398Z,64.84
2018-10-02T22:12:40.124Z,64.52
2018-10-02T22:15:07.816Z,65.09
2018-10-02T22:17:35.515Z,65.17
2018-10-02T22:20:03.168Z,64.48
2018-10-02T22:22:30.790Z,64.59
2018-10-02T22:24:58.471Z,64.64
2018-10-02T22:27:26.131Z,63.99
2018-10-02T22:29:53.759Z,64.88
2018-10-02T22:32:21.467Z,65.46
2018-10-02T22:34:49.178Z,64.75
2018-10-02T22:37:16.912Z,64.76
2018-10-02T22:39:44.624Z,64.57
2018-10-02T22:42:12.258Z,64.76
2018-10-02T22:44:39.873Z,64.80
2018-10-02T22:47:07.548Z,65.22
2018-10-02T22:49:35.207Z,65.22
2018-10-02T22:52:02.834Z,65.59
2018-10-02T22:57:04.653Z,65.21
2018-10-02T22:59:32.239Z,66.28
2018-10-02T23:01:59.881Z,66.50
2018-10-02T23:04:27.563Z,66.45
2018-10-02T23:06:55.229Z,66.60
2018-10-02T23:09:22.886Z,66.09
2018-10-02T23:11:50.471Z,66.23
2018-10-02T23:14:18.146Z,66.83
2018-10-02T23:16:45.872Z,67.24
2018-10-02T23:19:13.473Z,67.40
2018-10-02T23:21:41.173Z,66.84
2018-10-02T23:24:08.782Z,66.90
2018-10-02T23:26:36.397Z,66.47
2018-10-02T23:29:04.224Z,66.15
2018-10-02T23:31:31.915Z,66.77
2018-10-02T23:33:59.586Z,66.84
2018-10-02T23:36:27.306Z,66.96
2018-10-02T23:38:54.935Z,66.14
2018-10-02T23:41:22.645Z,66.90
2018-10-02T23:43:50.333Z,66.80
2018-10-02T23:46:18.211Z,66.52
2018-10-02T23:48:45.849Z,66.24
2018-10-02T23:51:14.556Z,65.85
2018-10-02T23:53:42.335Z,66.64
2018-10-02T23:56:10.122Z,66.54
2018-10-02T23:58:37.929Z,66.75
